createdAt,value
2022-11-12T00:01:26.820Z,4.70
2022-11-12T00:03:57.381Z,4.50
2022-11-12T00:06:25.799Z,4.80
2022-11-12T00:08:54.226Z,4.90
2022-11-12T00:11:22.611Z,4.27
2022-11-12T00:13:51.137Z,5.00
2022-11-12T00:16:19.650Z,4.80
2022-11-12T00:18:48.726Z,4.80
2022-11-12T00:21:18.473Z,4.30
2022-11-12T00:23:46.873Z,4.23
2022-11-12T00:26:15.349Z,4.77
2022-11-12T00:28:43.788Z,5.37
2022-11-12T00:31:13.137Z,5.87
2022-11-12T00:33:42.618Z,40.93
2022-11-12T00:36:11.815Z,71.33
2022-11-12T00:38:41.721Z,34.40
2022-11-12T00:41:12.177Z,26.40
2022-11-12T00:43:40.685Z,19.17
2022-11-12T00:46:09.128Z,14.43
2022-11-12T00:48:37.561Z,9.53
2022-11-12T00:51:06.930Z,8.20
2022-11-12T00:53:35.452Z,7.53
2022-11-12T00:56:07.082Z,6.20
2022-11-12T00:58:36.554Z,6.13
2022-11-12T01:01:09.285Z,5.70
2022-11-12T01:03:37.815Z,6.10
2022-11-12T01:06:07.307Z,6.73
2022-11-12T01:08:35.956Z,6.73
2022-11-12T01:11:11.566Z,7.00
2022-11-12T01:13:44.149Z,7.43
2022-11-12T01:16:14.718Z,6.93
2022-11-12T01:18:43.562Z,7.80
2022-11-12T01:21:12.265Z,8.03
2022-11-12T01:23:42.323Z,8.83
2022-11-12T01:26:14.649Z,8.70
2022-11-12T01:28:43.832Z,8.30
2022-11-12T01:31:14.035Z,6.80
2022-11-12T01:33:42.639Z,5.07
2022-11-12T01:36:11.520Z,4.67
2022-11-12T01:38:42.013Z,4.40
2022-11-12T01:41:13.987Z,4.43
2022-11-12T01:43:42.447Z,3.90
2022-11-12T01:46:15.752Z,5.50
2022-11-12T01:48:50.041Z,20.20
2022-11-12T01:51:18.591Z,78.43
2022-11-12T01:53:49.325Z,50.70
2022-11-12T01:56:19.775Z,28.03
2022-11-12T01:58:48.599Z,12.13
2022-11-12T02:01:17.123Z,7.93
2022-11-12T02:03:45.713Z,5.93
2022-11-12T02:06:15.966Z,5.17
2022-11-12T02:08:44.863Z,4.80
2022-11-12T02:11:15.769Z,4.40
2022-11-12T02:14:05.042Z,4.50
2022-11-12T02:16:35.367Z,3.83
2022-11-12T02:19:22.229Z,3.53
2022-11-12T02:21:52.243Z,3.67
2022-11-12T02:24:33.889Z,4.03
2022-11-12T02:27:02.589Z,4.83
2022-11-12T02:29:31.118Z,4.07
2022-11-12T02:31:59.551Z,4.10
2022-11-12T02:34:28.022Z,3.90
2022-11-12T02:36:57.884Z,3.80
2022-11-12T02:39:26.462Z,4.00
2022-11-12T02:41:54.834Z,3.73
2022-11-12T02:44:23.287Z,3.90
2022-11-12T02:46:51.701Z,4.53
2022-11-12T02:49:20.167Z,4.30
2022-11-12T02:51:48.626Z,4.70
2022-11-12T02:54:18.397Z,4.43
2022-11-12T02:56:46.919Z,3.93
2022-11-12T02:59:15.336Z,4.47
2022-11-12T03:01:43.786Z,4.67
2022-11-12T03:04:12.166Z,4.30
2022-11-12T03:06:40.706Z,4.20
2022-11-12T03:09:09.239Z,4.23
2022-11-12T03:11:39.129Z,3.93
2022-11-12T03:14:07.534Z,3.60
2022-11-12T03:16:35.959Z,3.63
2022-11-12T03:19:04.392Z,3.60
2022-11-12T03:21:32.785Z,3.17
2022-11-12T03:24:02.537Z,3.63
2022-11-12T03:26:35.591Z,3.33
2022-11-12T03:29:06.232Z,3.80
2022-11-12T03:31:35.590Z,3.80
2022-11-12T03:34:04.156Z,4.30
2022-11-12T03:36:32.720Z,4.30
2022-11-12T03:39:01.114Z,4.67
2022-11-12T03:41:29.526Z,3.90
2022-11-12T03:43:57.945Z,3.50
2022-11-12T03:46:27.778Z,3.30
2022-11-12T03:48:56.216Z,3.17
2022-11-12T03:51:24.933Z,3.30
2022-11-12T03:53:53.361Z,3.37
2022-11-12T03:56:21.878Z,3.00
2022-11-12T03:58:50.318Z,3.00
2022-11-12T04:01:18.773Z,3.07
2022-11-12T04:03:48.641Z,3.20
2022-11-12T04:06:34.638Z,3.10
2022-11-12T04:09:03.086Z,3.10
2022-11-12T04:11:31.548Z,2.90
2022-11-12T04:13:59.186Z,2.83
2022-11-12T04:16:44.402Z,3.20
2022-11-12T04:19:32.564Z,2.77
2022-11-12T04:22:03.477Z,3.13
2022-11-12T04:24:50.866Z,3.20
2022-11-12T04:27:21.821Z,3.10
2022-11-12T04:30:08.445Z,3.20
2022-11-12T04:32:38.425Z,3.03
2022-11-12T04:35:09.942Z,3.00
2022-11-12T04:37:48.491Z,3.73
2022-11-12T04:40:38.185Z,4.07
2022-11-12T04:43:25.581Z,3.97
2022-11-12T04:45:55.384Z,4.93
2022-11-12T04:48:25.453Z,4.47
2022-11-12T04:50:58.358Z,4.40
2022-11-12T04:53:27.017Z,4.40
2022-11-12T04:55:57.427Z,4.00
2022-11-12T04:58:26.625Z,3.63
2022-11-12T05:00:55.293Z,3.30
2022-11-12T05:03:23.766Z,3.37
2022-11-12T05:05:52.179Z,3.93
2022-11-12T05:08:22.020Z,4.00
2022-11-12T05:10:50.541Z,4.07
2022-11-12T05:13:18.970Z,3.47
2022-11-12T05:15:47.417Z,3.53
2022-11-12T05:18:15.914Z,3.70
2022-11-12T05:20:44.321Z,3.37
2022-11-12T05:23:12.775Z,3.40
2022-11-12T05:25:42.578Z,3.50
2022-11-12T05:28:10.979Z,3.80
2022-11-12T05:30:39.531Z,3.23
2022-11-12T05:33:08.070Z,3.70
2022-11-12T05:35:36.556Z,4.10
2022-11-12T05:38:04.969Z,3.90
2022-11-12T05:40:33.422Z,3.53
2022-11-12T05:43:03.251Z,3.70
2022-11-12T05:45:31.683Z,3.93
2022-11-12T05:48:00.241Z,3.83
2022-11-12T05:50:34.931Z,4.10
2022-11-12T05:53:08.221Z,3.47
2022-11-12T05:55:37.283Z,4.37
2022-11-12T05:58:07.993Z,3.60
2022-11-12T06:00:39.098Z,3.40
2022-11-12T06:03:07.673Z,3.50
2022-11-12T06:05:36.766Z,3.60
2022-11-12T06:08:06.674Z,3.70
2022-11-12T06:10:35.150Z,3.87
2022-11-12T06:13:03.586Z,5.17
2022-11-12T06:15:38.968Z,9.20
2022-11-12T06:18:07.954Z,12.27
2022-11-12T06:20:36.535Z,16.13
2022-11-12T06:23:05.380Z,14.33
2022-11-12T06:25:33.957Z,12.50
2022-11-12T06:28:02.391Z,10.10
2022-11-12T06:30:30.844Z,7.75
2022-11-12T06:33:00.683Z,6.43
2022-11-12T06:35:29.186Z,7.43
2022-11-12T06:37:57.964Z,7.37
2022-11-12T06:40:26.405Z,7.17
2022-11-12T06:42:59.023Z,5.80
2022-11-12T06:45:27.527Z,6.37
2022-11-12T06:48:00.837Z,5.43
2022-11-12T06:50:29.278Z,4.60
2022-11-12T06:53:00.408Z,3.67
2022-11-12T06:55:28.917Z,6.90
2022-11-12T06:57:57.384Z,6.37
2022-11-12T07:00:25.905Z,6.17
2022-11-12T07:02:54.491Z,6.27
2022-11-12T07:05:24.278Z,5.80
2022-11-12T07:07:52.727Z,4.97
2022-11-12T07:10:21.219Z,4.23
2022-11-12T07:12:53.361Z,4.13
2022-11-12T07:15:22.099Z,5.10
2022-11-12T07:17:50.506Z,6.83
2022-11-12T07:20:19.207Z,7.40
2022-11-12T07:22:49.050Z,6.03
2022-11-12T07:25:17.724Z,5.80
2022-11-12T07:27:46.233Z,7.50
2022-11-12T07:30:15.389Z,8.07
2022-11-12T07:32:47.251Z,8.23
2022-11-12T07:35:19.323Z,9.07
2022-11-12T07:37:49.151Z,9.50
2022-11-12T07:40:17.706Z,11.00
2022-11-12T07:42:46.437Z,10.43
2022-11-12T07:45:14.954Z,8.73
2022-11-12T07:47:43.377Z,7.70
2022-11-12T07:50:11.927Z,5.60
2022-11-12T07:52:40.409Z,5.73
2022-11-12T07:55:10.726Z,6.10
2022-11-12T07:57:39.230Z,6.70
2022-11-12T08:00:09.074Z,6.47
2022-11-12T08:02:37.494Z,6.10
2022-11-12T08:05:12.977Z,5.70
2022-11-12T08:07:43.160Z,5.93
2022-11-12T08:10:13.311Z,5.70
2022-11-12T08:12:41.856Z,6.10
2022-11-12T08:15:10.896Z,5.90
2022-11-12T08:17:40.095Z,6.07
2022-11-12T08:20:09.649Z,9.60
2022-11-12T08:22:38.189Z,8.33
2022-11-12T08:25:07.489Z,7.23
2022-11-12T08:27:37.405Z,7.07
2022-11-12T08:30:07.374Z,6.80
2022-11-12T08:32:36.001Z,9.00
2022-11-12T08:35:04.631Z,8.70
2022-11-12T08:37:33.142Z,8.50
2022-11-12T08:40:01.548Z,8.37
2022-11-12T08:42:30.164Z,8.67
2022-11-12T08:45:00.153Z,8.87
2022-11-12T08:47:28.626Z,8.53
2022-11-12T08:49:57.165Z,9.63
2022-11-12T08:52:25.679Z,11.67
2022-11-12T08:54:54.108Z,10.97
2022-11-12T08:57:22.530Z,10.80
2022-11-12T08:59:51.007Z,11.30
2022-11-12T09:02:22.177Z,10.80
2022-11-12T09:04:50.704Z,10.17
2022-11-12T09:07:48.376Z,9.63
2022-11-12T09:10:08.738Z,10.07
2022-11-12T09:12:37.220Z,10.13
2022-11-12T09:17:58.120Z,9.30
2022-11-12T09:20:28.214Z,9.57
2022-11-12T09:22:59.715Z,9.27
2022-11-12T09:25:28.272Z,14.83
2022-11-12T09:27:56.873Z,15.13
2022-11-12T09:30:25.469Z,20.63
2022-11-12T09:32:59.780Z,6.80
2022-11-12T09:35:28.260Z,7.43
2022-11-12T09:37:56.683Z,7.30
2022-11-12T09:40:32.358Z,6.53
2022-11-12T09:43:00.791Z,5.83
2022-11-12T09:45:32.619Z,5.73
2022-11-12T09:48:06.738Z,5.40
2022-11-12T09:50:38.253Z,5.53
2022-11-12T09:53:16.415Z,5.03
2022-11-12T09:55:47.458Z,4.83
2022-11-12T09:58:17.476Z,5.80
2022-11-12T10:00:56.986Z,6.77
2022-11-12T10:03:37.582Z,4.93
2022-11-12T10:06:13.648Z,4.63
2022-11-12T10:08:51.438Z,12.20
2022-11-12T10:12:03.881Z,8.23
2022-11-12T10:14:45.897Z,8.60
2022-11-12T10:17:18.807Z,8.50
2022-11-12T10:19:58.443Z,10.30
2022-11-12T10:22:38.608Z,11.47
2022-11-12T10:25:14.776Z,8.47
2022-11-12T10:27:44.120Z,15.93
2022-11-12T10:30:18.034Z,13.93
2022-11-12T10:32:47.810Z,12.23
2022-11-12T10:35:19.862Z,7.23
2022-11-12T10:37:51.942Z,16.10
2022-11-12T10:40:31.438Z,30.67
2022-11-12T10:43:01.822Z,15.77
2022-11-12T10:45:30.931Z,18.77
2022-11-12T10:48:00.578Z,25.87
2022-11-12T10:50:36.930Z,27.50
2022-11-12T10:53:07.093Z,19.93
2022-11-12T10:55:37.113Z,20.83
2022-11-12T10:58:19.618Z,13.80
2022-11-12T11:00:57.035Z,10.00
2022-11-12T11:03:27.167Z,6.53
2022-11-12T11:06:00.106Z,5.20
2022-11-12T11:08:42.843Z,4.70
2022-11-12T11:11:28.725Z,4.33
2022-11-12T11:13:58.861Z,4.20
2022-11-12T11:16:29.350Z,7.93
2022-11-12T11:18:59.979Z,11.87
2022-11-12T11:21:43.494Z,5.20
2022-11-12T11:24:23.878Z,4.43
2022-11-12T11:26:58.194Z,7.63
2022-11-12T11:29:38.621Z,6.00
2022-11-12T11:32:16.529Z,3.90
2022-11-12T11:34:49.707Z,4.97
2022-11-12T11:37:27.294Z,4.60
2022-11-12T11:40:06.835Z,4.40
2022-11-12T11:42:50.727Z,4.03
2022-11-12T11:45:23.050Z,3.87
2022-11-12T11:48:01.585Z,3.90
2022-11-12T11:50:32.195Z,5.00
2022-11-12T11:53:11.337Z,4.83
2022-11-12T11:55:54.578Z,4.60
2022-11-12T11:58:43.299Z,3.87
2022-11-12T12:01:17.619Z,7.63
2022-11-12T12:03:57.469Z,6.60
2022-11-12T12:06:28.187Z,8.97
2022-11-12T12:09:05.147Z,6.57
2022-11-12T12:11:36.961Z,4.80
2022-11-12T12:14:24.559Z,4.03
2022-11-12T12:17:01.494Z,4.10
2022-11-12T12:19:40.309Z,4.40
2022-11-12T12:22:13.393Z,4.67
2022-11-12T12:24:48.778Z,3.70
2022-11-12T12:27:20.578Z,4.47
2022-11-12T12:29:51.158Z,3.73
2022-11-12T12:32:24.457Z,3.80
2022-11-12T12:34:59.641Z,3.20
2022-11-12T12:37:36.690Z,3.60
2022-11-12T12:40:18.703Z,3.83
2022-11-12T12:42:50.353Z,3.53
2022-11-12T12:45:35.709Z,3.47
2022-11-12T12:48:08.594Z,3.63
2022-11-12T12:50:39.689Z,3.90
2022-11-12T12:53:18.966Z,3.73
2022-11-12T12:55:50.360Z,3.83
2022-11-12T12:58:22.154Z,4.40
2022-11-12T13:00:52.090Z,3.67
2022-11-12T13:03:49.482Z,4.27
2022-11-12T13:06:24.622Z,4.20
2022-11-12T13:08:55.821Z,4.20
2022-11-12T13:12:11.539Z,4.00
2022-11-12T13:15:02.025Z,4.53
2022-11-12T13:17:50.787Z,4.50
2022-11-12T13:20:36.966Z,4.40
2022-11-12T13:23:11.274Z,4.40
2022-11-12T13:25:39.986Z,20.83
2022-11-12T13:28:14.414Z,4.70
2022-11-12T13:31:00.532Z,3.20
2022-11-12T13:33:34.860Z,3.10
2022-11-12T13:36:25.807Z,3.20
2022-11-12T13:38:57.607Z,9.27
2022-11-12T13:41:46.628Z,3.57
2022-11-12T13:44:18.346Z,3.10
2022-11-12T13:46:47.239Z,3.70
2022-11-12T13:49:16.806Z,4.33
2022-11-12T13:51:46.614Z,3.80
2022-11-12T13:54:34.003Z,3.50
2022-11-12T13:57:30.723Z,3.00
2022-11-12T14:00:23.661Z,3.10
2022-11-12T14:02:55.719Z,2.90
2022-11-12T14:05:25.783Z,2.70
2022-11-12T14:08:08.264Z,2.70
2022-11-12T14:10:45.905Z,3.30
2022-11-12T14:13:40.143Z,3.93
2022-11-12T14:16:35.550Z,7.00
2022-11-12T14:19:30.021Z,8.30
2022-11-12T14:22:02.857Z,6.00
2022-11-12T14:24:33.891Z,4.50
2022-11-12T14:27:02.373Z,4.83
2022-11-12T14:29:35.365Z,4.57
2022-11-12T14:32:10.639Z,4.90
2022-11-12T14:34:39.556Z,10.43
2022-11-12T14:37:32.984Z,15.33
2022-11-12T14:40:02.278Z,16.37
2022-11-12T14:42:30.806Z,16.20
2022-11-12T14:44:59.330Z,14.57
2022-11-12T14:47:29.264Z,12.53
2022-11-12T14:49:57.744Z,12.33
2022-11-12T14:52:29.721Z,19.27
2022-11-12T14:54:59.570Z,15.87
2022-11-12T14:57:29.580Z,13.00
2022-11-12T14:59:58.662Z,11.20
2022-11-12T15:02:47.284Z,7.83
2022-11-12T15:05:20.833Z,4.63
2022-11-12T15:07:54.416Z,4.97
2022-11-12T15:10:37.614Z,6.83
2022-11-12T15:13:08.408Z,8.90
2022-11-12T15:15:38.645Z,8.00
2022-11-12T15:18:15.345Z,5.60
2022-11-12T15:20:44.013Z,4.50
2022-11-12T15:23:18.382Z,4.80
2022-11-12T15:25:47.208Z,8.50
2022-11-12T15:28:20.530Z,15.10
2022-11-12T15:31:01.957Z,15.43
2022-11-12T15:33:31.969Z,12.17
2022-11-12T15:36:01.444Z,11.47
2022-11-12T15:38:31.930Z,13.20
2022-11-12T15:41:00.957Z,8.00
2022-11-12T15:43:31.340Z,7.40
2022-11-12T15:45:59.991Z,6.57
2022-11-12T15:48:28.441Z,13.40
2022-11-12T15:51:01.582Z,16.30
2022-11-12T15:53:30.638Z,11.73
2022-11-12T15:55:59.171Z,7.70
2022-11-12T15:58:33.827Z,6.90
2022-11-12T16:01:02.475Z,6.60
2022-11-12T16:03:31.531Z,7.50
2022-11-12T16:06:08.284Z,7.07
2022-11-12T16:08:37.442Z,5.63
2022-11-12T16:11:26.110Z,5.77
2022-11-12T16:13:54.584Z,5.60
2022-11-12T16:16:23.053Z,5.80
2022-11-12T16:18:51.581Z,7.07
2022-11-12T16:21:21.542Z,7.17
2022-11-12T16:23:50.333Z,7.87
2022-11-12T16:26:24.528Z,8.63
2022-11-12T16:28:52.929Z,8.40
2022-11-12T16:31:22.001Z,7.87
2022-11-12T16:33:50.563Z,9.40
2022-11-12T16:36:19.276Z,10.43
2022-11-12T16:38:49.422Z,10.33
2022-11-12T16:41:17.923Z,10.23
2022-11-12T16:43:46.424Z,10.10
2022-11-12T16:46:18.105Z,9.97
2022-11-12T16:48:46.545Z,18.50
2022-11-12T16:51:17.850Z,23.00
2022-11-12T16:53:48.226Z,27.67
2022-11-12T16:56:18.927Z,30.27
2022-11-12T16:58:48.487Z,20.60
2022-11-12T17:01:24.579Z,20.20
2022-11-12T17:03:53.595Z,17.80
2022-11-12T17:06:22.317Z,16.07
2022-11-12T17:08:54.799Z,14.80
2022-11-12T17:11:23.783Z,27.03
2022-11-12T17:13:52.286Z,48.97
2022-11-12T17:16:20.754Z,37.80
2022-11-12T17:18:49.182Z,21.07
2022-11-12T17:21:19.181Z,15.37
2022-11-12T17:23:47.851Z,14.37
2022-11-12T17:26:19.236Z,14.53
2022-11-12T17:28:48.436Z,21.47
2022-11-12T17:31:18.663Z,24.90
2022-11-12T17:33:48.641Z,25.87
2022-11-12T17:36:19.043Z,26.87
2022-11-12T17:38:47.598Z,23.13
2022-11-12T17:41:17.461Z,22.03
2022-11-12T17:43:45.910Z,18.87
2022-11-12T17:46:15.738Z,15.67
2022-11-12T17:48:44.178Z,14.17
2022-11-12T17:51:14.581Z,13.20
2022-11-12T17:53:44.066Z,11.07
2022-11-12T17:56:15.121Z,10.13
2022-11-12T17:58:45.761Z,9.90
2022-11-12T18:01:16.767Z,11.30
2022-11-12T18:03:47.740Z,11.23
2022-11-12T18:06:18.742Z,10.17
2022-11-12T18:08:47.565Z,8.50
2022-11-12T18:11:16.820Z,39.60
2022-11-12T18:13:46.601Z,24.83
2022-11-12T18:16:15.840Z,22.43
2022-11-12T18:18:44.480Z,13.83
2022-11-12T18:21:13.042Z,11.93
2022-11-12T18:23:43.610Z,9.83
2022-11-12T18:26:15.026Z,8.80
2022-11-12T18:28:43.480Z,8.33
2022-11-12T18:31:14.635Z,7.87
2022-11-12T18:33:43.051Z,7.60
2022-11-12T18:36:13.458Z,10.33
2022-11-12T18:38:42.097Z,13.37
2022-11-12T18:41:11.933Z,16.57
2022-11-12T18:43:41.260Z,16.73
2022-11-12T18:46:10.933Z,19.30
2022-11-12T18:48:41.402Z,18.60
2022-11-12T18:51:11.155Z,20.87
2022-11-12T18:53:41.496Z,25.20
2022-11-12T18:56:12.974Z,26.93
2022-11-12T18:58:41.687Z,30.00
2022-11-12T19:01:13.205Z,32.20
2022-11-12T19:03:43.945Z,34.33
2022-11-12T19:06:13.948Z,40.83
2022-11-12T19:08:42.637Z,35.30
2022-11-12T19:11:12.697Z,31.47
2022-11-12T19:13:41.804Z,26.03
2022-11-12T19:16:11.994Z,19.30
2022-11-12T19:18:42.994Z,17.00
2022-11-12T19:21:13.887Z,16.23
2022-11-12T19:23:43.693Z,16.07
2022-11-12T19:26:14.533Z,15.20
2022-11-12T19:28:43.632Z,13.47
2022-11-12T19:31:15.258Z,12.57
2022-11-12T19:33:45.894Z,10.67
2022-11-12T19:36:16.420Z,8.80
2022-11-12T19:38:45.006Z,10.90
2022-11-12T19:41:19.041Z,14.60
2022-11-12T19:43:48.653Z,15.17
2022-11-12T19:46:17.738Z,15.80
2022-11-12T19:48:47.736Z,14.20
2022-11-12T19:51:16.289Z,12.33
2022-11-12T19:53:45.618Z,11.63
2022-11-12T19:56:17.034Z,11.83
2022-11-12T19:58:46.465Z,11.13
2022-11-12T20:01:16.607Z,10.17
2022-11-12T20:03:47.113Z,10.27
2022-11-12T20:06:16.913Z,9.93
2022-11-12T20:08:45.613Z,10.03
2022-11-12T20:11:16.133Z,9.97
2022-11-12T20:13:45.889Z,10.97
2022-11-12T20:16:19.482Z,9.20
2022-11-12T20:18:55.815Z,8.83
2022-11-12T20:21:24.820Z,7.90
2022-11-12T20:23:53.401Z,8.37
2022-11-12T20:26:21.863Z,8.10
2022-11-12T20:28:50.302Z,8.70
2022-11-12T20:31:20.915Z,8.43
2022-11-12T20:33:50.114Z,8.80
2022-11-12T20:36:21.620Z,9.00
2022-11-12T20:38:50.629Z,9.53
2022-11-12T20:41:20.978Z,8.17
2022-11-12T20:43:52.474Z,7.80
2022-11-12T20:46:20.939Z,7.23
2022-11-12T20:48:49.441Z,7.00
2022-11-12T20:51:25.259Z,7.17
2022-11-12T20:53:59.260Z,6.80
2022-11-12T20:56:29.526Z,11.37
2022-11-12T20:58:58.317Z,17.83
2022-11-12T21:01:28.347Z,16.63
2022-11-12T21:03:57.439Z,11.87
2022-11-12T21:06:29.436Z,8.83
2022-11-12T21:08:59.796Z,8.77
2022-11-12T21:11:28.337Z,8.67
2022-11-12T21:13:56.816Z,7.93
2022-11-12T21:16:25.481Z,7.90
2022-11-12T21:18:54.006Z,8.57
2022-11-12T21:21:22.856Z,8.13
2022-11-12T21:23:53.975Z,8.73
2022-11-12T21:26:23.191Z,8.50
2022-11-12T21:28:53.641Z,9.00
2022-11-12T21:31:23.006Z,10.27
2022-11-12T21:33:51.905Z,11.40
2022-11-12T21:36:21.409Z,10.70
2022-11-12T21:38:50.409Z,12.07
2022-11-12T21:41:21.902Z,11.60
2022-11-12T21:43:50.838Z,9.93
2022-11-12T21:46:21.063Z,11.97
2022-11-12T21:48:54.929Z,12.23
2022-11-12T21:51:25.558Z,9.97
2022-11-12T21:53:55.770Z,6.60
2022-11-12T21:56:26.000Z,6.20
2022-11-12T21:58:56.096Z,6.60
2022-11-12T22:01:26.085Z,6.70
2022-11-12T22:03:55.905Z,8.30
2022-11-12T22:06:26.025Z,7.53
2022-11-12T22:08:55.477Z,7.90
2022-11-12T22:11:28.041Z,8.77
2022-11-12T22:13:56.640Z,9.13
2022-11-12T22:16:26.795Z,8.93
2022-11-12T22:18:56.535Z,8.37
2022-11-12T22:21:26.984Z,9.30
2022-11-12T22:23:56.486Z,8.50
2022-11-12T22:26:28.004Z,8.20
2022-11-12T22:28:58.109Z,7.80
2022-11-12T22:31:28.136Z,7.60
2022-11-12T22:33:58.219Z,7.10
2022-11-12T22:36:27.881Z,7.30
2022-11-12T22:38:57.057Z,7.97
2022-11-12T22:41:28.523Z,8.87
2022-11-12T22:43:58.539Z,10.87
2022-11-12T22:46:28.527Z,12.03
2022-11-12T22:48:57.486Z,10.80
2022-11-12T22:51:28.029Z,14.10
2022-11-12T22:53:57.689Z,14.87
2022-11-12T22:56:28.266Z,19.13
2022-11-12T22:58:57.329Z,17.33
2022-11-12T23:01:27.767Z,20.47
2022-11-12T23:03:57.996Z,18.00
2022-11-12T23:06:27.231Z,21.43
2022-11-12T23:08:56.123Z,26.50
2022-11-12T23:11:26.123Z,28.03
2022-11-12T23:13:56.975Z,26.90
2022-11-12T23:16:27.110Z,29.77
2022-11-12T23:18:55.863Z,38.97
2022-11-12T23:21:25.582Z,39.43
2022-11-12T23:23:54.032Z,25.53
2022-11-12T23:26:23.873Z,12.87
2022-11-12T23:28:52.942Z,10.17
2022-11-12T23:31:24.365Z,9.80
2022-11-12T23:33:54.478Z,8.87
2022-11-12T23:36:25.109Z,7.57
2022-11-12T23:38:53.831Z,7.20
2022-11-12T23:41:25.807Z,7.33
2022-11-12T23:43:54.834Z,8.20
2022-11-12T23:46:24.868Z,8.87
2022-11-12T23:48:53.316Z,8.90
2022-11-12T23:51:23.173Z,9.77
2022-11-12T23:53:51.791Z,9.23
2022-11-12T23:56:20.694Z,9.50
2022-11-12T23:58:49.110Z,9.00
